Tuesday, January 16, 2018, 12:27 PM EST
Back to Local

KRUT, Rutland, Rutland-southern Vermont Regional Airport

Location: North Clarendon, VT, United States Lat: 43.533
Local Time: 12:27 PM EST (17:27 GMT) Lon: -72.95
Time Zone: US/Eastern Elev: 787 ft

Show me the last for .
Show Decoded

2018-01-16 11:56 METAR KRUT 161656Z AUTO 00000KT 3SM -SN BKN026 OVC035 M02/M06 A3039 RMK AO2
                 SLP312 P0000 T10221061 FZRANO $ =
2018-01-16 11:46 METAR KRUT 161646Z AUTO 00000KT 2 1/2SM -SN BKN028 OVC035 M03/M07 A3040 RMK AO2
                 P0000 FZRANO $ =
2018-01-16 10:56 METAR KRUT 161556Z AUTO VRB03KT 4SM -SN OVC032 M03/M07 A3042 RMK AO2 SLP323
                 P0000 T10331067 FZRANO $ =
2018-01-16 10:28 METAR KRUT 161528Z AUTO 14004KT 9SM -SN OVC034 M04/M08 A3042 RMK AO2 P0000
                 FZRANO $ =
2018-01-16 09:56 METAR KRUT 161456Z AUTO 18003KT 9SM -SN OVC029 M05/M08 A3043 RMK AO2 SLP329
                 P0000 60000 T10501078 53002 FZRANO $ =
2018-01-16 09:37 METAR KRUT 161437Z AUTO 00000KT 6SM -SN BR BKN029 OVC041 M06/M08 A3043 RMK AO2
                 P0000 FZRANO $ =
2018-01-16 09:21 METAR KRUT 161421Z AUTO 00000KT 2SM -SN BR BKN029 OVC041 M07/M08 A3043 RMK AO2
                 VIS 1 1/4V4 P0000 FZRANO $ =
2018-01-16 08:56 METAR KRUT 161356Z AUTO 00000KT 4SM -SN BR OVC025 M07/M09 A3042 RMK AO2 SNB25
                 SLP324 P0000 T10721089 FZRANO $ =
2018-01-16 07:56 METAR KRUT 161256Z AUTO 00000KT 10SM OVC027 M08/M11 A3043 RMK AO2 SLP327
                 T10831106 FZRANO $ =
2018-01-16 06:56 METAR KRUT 161156Z AUTO 00000KT 9SM OVC027 M08/M10 A3043 RMK AO2 SNE52 SLP325
                 P0000 60000 T10831100 11083 21089 53004 FZRANO $ =
2018-01-16 05:56 METAR KRUT 161056Z AUTO 20003KT 9SM -SN BKN046 OVC120 M08/M11 A3041 RMK AO2
                 SLP322 P0000 T10831106 FZRANO $ =
2018-01-16 04:56 METAR KRUT 160956Z AUTO 17005KT 9SM -SN FEW039 BKN070 OVC110 M08/M12 A3041 RMK
                 AO2 SLP322 P0000 T10831117 FZRANO $ =
2018-01-16 03:56 METAR KRUT 160856Z AUTO 19005KT 9SM -SN BKN055 M09/M12 A3041 RMK AO2 SNE31B51
                 SLP323 P0000 60000 T10891122 58008 FZRANO $ =
2018-01-16 02:56 METAR KRUT 160756Z AUTO 20005KT 9SM -SN BKN060 M08/M13 A3043 RMK AO2 SNB43
                 SLP326 P0000 T10831128 FZRANO $ =
2018-01-16 01:56 METAR KRUT 160656Z AUTO 16009KT 10SM OVC043 M08/M14 A3043 RMK AO2 SLP327
                 T10831139 FZRANO $ =
2018-01-16 00:56 METAR KRUT 160556Z AUTO 14009KT 10SM OVC041 M09/M14 A3044 RMK AO2 SLP331
                 T10891144 11089 21122 56024 FZRANO $ =
2018-01-15 23:56 METAR KRUT 160456Z AUTO 15007KT 10SM BKN041 M10/M15 A3046 RMK AO2 SLP341
                 T11001150 410611194 FZRANO $ =
2018-01-15 22:56 METAR KRUT 160356Z AUTO 14005KT 10SM BKN034 M10/M16 A3048 RMK AO2 SLP346
                 T11001156 FZRANO $ =
2018-01-15 21:56 METAR KRUT 160256Z AUTO 03004KT 10SM OVC034 M11/M14 A3051 RMK AO2 SLP357
                 T11111144 56017 FZRANO $ =
2018-01-15 20:56 METAR KRUT 160156Z AUTO 35004KT 10SM SCT034 M12/M15 A3052 RMK AO2 SLP358
                 T11221150 FZRANO $ =
2018-01-15 19:56 METAR KRUT 160056Z AUTO 32003KT 10SM FEW027 M11/M15 A3053 RMK AO2 SLP362
                 T11111150 FZRANO $ =
2018-01-15 18:56 METAR KRUT 152356Z AUTO 36004KT 10SM OVC031 M11/M14 A3056 RMK AO2 SLP374
                 T11061144 11061 21111 55000 FZRANO $ =
2018-01-15 17:56 METAR KRUT 152256Z AUTO 32004KT 10SM CLR M10/M17 A3056 RMK AO2 SLP375 T11001167
                 FZRANO $ =
2018-01-15 16:56 METAR KRUT 152156Z AUTO 12004KT 10SM CLR M09/M17 A3056 RMK AO2 SLP372 T10941172
                 FZRANO $ =
2018-01-15 15:56 METAR KRUT 152056Z AUTO 13008KT 10SM CLR M08/M18 A3056 RMK AO2 SLP373 T10831178
                 55019 FZRANO $ =
2018-01-15 14:56 METAR KRUT 151956Z AUTO 16008KT 10SM CLR M06/M17 A3056 RMK AO2 SLP375 T10611172
                 FZRANO $ =
2018-01-15 13:56 METAR KRUT 151856Z AUTO 14008KT 10SM CLR M07/M17 A3058 RMK AO2 SLP381 T10671172
                 FZRANO $ =
2018-01-15 12:56 METAR KRUT 151756Z AUTO 14007KT 10SM CLR M07/M16 A3062 RMK AO2 SLP392 T10721161
                 11067 21178 56034 FZRANO $ =

Support USWX by starting your Amazon purchase here.